Cahul International Airport

Jump to: basic info | weather | comments

Related pages: nearby airports | nearby navaids | notams | map

Basic information (top)

Codes: LUCH
Location: lon 45.843800, lat 28.263700, elev 652 ft / 199 m msl
Status: medium_airport
Scheduled airline service: no
Links: Wikipedia Mobile

Weather (top)

Current conditions (rec'd 2014/04/16 14:00Z):

LUCH 161400Z 36008KT 3000 -DZ BR OVC002 07/07 Q1014 RMK P/Z

Airport forecast for Tulcea Airport 51nm (94km) SSE (rec'd 2012/08/07 12:36Z):

TAF LRTC 071100Z 0712/0724 VRB04KT 
      BECMG 0716/0718 17010KT

Latest comments (top)

No comments yet for Cahul International Airport

More... (top)

See also NOTAMs and nearby airports and navaids, or visit the Cahul International Airport page at the main OurAirports website..